createdAt,value
2018-03-30T00:00:46.589Z,92115.50
2018-03-30T00:01:47.188Z,92114.52
2018-03-30T00:02:36.239Z,92107.45
2018-03-30T00:03:25.282Z,92106.20
2018-03-30T00:04:14.420Z,92111.26
2018-03-30T00:05:03.539Z,92110.47
2018-03-30T00:05:52.589Z,92117.80
2018-03-30T00:06:41.636Z,92117.59
2018-03-30T00:07:30.687Z,92125.67
2018-03-30T00:08:19.852Z,92130.12
2018-03-30T00:09:08.959Z,92127.55
2018-03-30T00:09:58.042Z,92130.71
2018-03-30T00:10:52.520Z,92128.84
2018-03-30T00:11:41.633Z,92139.45
2018-03-30T00:12:30.760Z,92136.08
2018-03-30T00:13:19.805Z,92141.44
2018-03-30T00:14:08.868Z,92137.45
2018-03-30T00:14:57.913Z,92141.19
2018-03-30T00:15:46.968Z,92138.77
2018-03-30T00:16:36.082Z,92140.09
2018-03-30T00:17:25.123Z,92140.92
2018-03-30T00:18:14.183Z,92140.19
2018-03-30T00:19:03.227Z,92142.56
2018-03-30T00:19:52.294Z,92136.80
2018-03-30T00:20:41.340Z,92138.55
2018-03-30T00:21:30.483Z,92139.59
2018-03-30T00:22:19.563Z,92139.27
2018-03-30T00:23:08.604Z,92132.35
2018-03-30T00:23:57.747Z,92133.85
2018-03-30T00:24:46.790Z,92132.67
2018-03-30T00:25:35.860Z,92131.95
2018-03-30T00:26:24.911Z,92132.03
2018-03-30T00:27:14.001Z,92139.08
2018-03-30T00:28:03.058Z,92135.02
2018-03-30T00:28:52.099Z,92136.66
2018-03-30T00:29:41.155Z,92141.87
2018-03-30T00:30:30.213Z,92140.31
2018-03-30T00:31:19.261Z,92137.88
2018-03-30T00:32:08.301Z,92141.06
2018-03-30T00:33:03.396Z,92140.59
2018-03-30T00:33:52.437Z,92143.70
2018-03-30T00:34:41.482Z,92138.94
2018-03-30T00:35:30.532Z,92144.70
2018-03-30T00:36:19.584Z,92142.23
2018-03-30T00:37:08.628Z,92145.92
2018-03-30T00:37:57.695Z,92137.99
2018-03-30T00:38:46.927Z,92139.53
2018-03-30T00:39:36.012Z,92136.32
2018-03-30T00:40:25.049Z,92131.00
2018-03-30T00:41:14.101Z,92135.22
2018-03-30T00:42:03.144Z,92133.13
2018-03-30T00:42:52.191Z,92138.87
2018-03-30T00:43:41.243Z,92137.71
2018-03-30T00:44:30.339Z,92139.10
2018-03-30T00:45:19.390Z,92129.56
2018-03-30T00:46:08.446Z,92137.46
2018-03-30T00:46:57.493Z,92133.08
2018-03-30T00:47:46.537Z,92134.25
2018-03-30T00:48:35.584Z,92134.02
2018-03-30T00:49:24.637Z,92137.30
2018-03-30T00:50:13.798Z,92131.03
2018-03-30T00:51:02.845Z,92126.14
2018-03-30T00:51:51.897Z,92128.30
2018-03-30T00:52:40.997Z,92130.94
2018-03-30T00:53:54.694Z,92134.77
2018-03-30T00:54:43.745Z,92130.45
2018-03-30T00:55:32.890Z,92128.94
2018-03-30T00:56:21.938Z,92123.16
2018-03-30T00:57:10.990Z,92121.89
2018-03-30T00:58:00.038Z,92123.47
2018-03-30T00:58:49.089Z,92123.29
2018-03-30T00:59:38.143Z,92124.88
2018-03-30T01:00:27.187Z,92122.14
2018-03-30T01:01:16.306Z,92128.45
2018-03-30T01:02:05.367Z,92126.73
2018-03-30T01:02:54.412Z,92125.34
2018-03-30T01:03:43.481Z,92131.68
2018-03-30T01:04:32.567Z,92127.89
2018-03-30T01:05:21.687Z,92132.34
2018-03-30T01:06:10.757Z,92132.77
2018-03-30T01:06:59.852Z,92131.64
2018-03-30T01:07:48.936Z,92139.89
2018-03-30T01:08:38.012Z,92140.91
2018-03-30T01:09:27.061Z,92146.61
2018-03-30T01:10:16.106Z,92151.30
2018-03-30T01:11:09.916Z,92145.83
2018-03-30T01:11:58.977Z,92150.92
2018-03-30T01:12:48.241Z,92153.64
2018-03-30T01:13:37.288Z,92145.68
2018-03-30T01:14:26.327Z,92149.83
2018-03-30T01:15:15.373Z,92149.22
2018-03-30T01:16:04.523Z,92145.58
2018-03-30T01:16:53.570Z,92156.27
2018-03-30T01:17:42.710Z,92151.30
2018-03-30T01:18:31.878Z,92154.20
2018-03-30T01:19:20.956Z,92152.73
2018-03-30T01:20:10.026Z,92154.56
2018-03-30T01:20:59.238Z,92151.50
2018-03-30T01:21:48.291Z,92149.77
2018-03-30T01:22:37.346Z,92159.25
2018-03-30T01:23:26.402Z,92162.83
2018-03-30T01:24:15.454Z,92158.95
2018-03-30T01:25:04.506Z,92155.64
2018-03-30T01:25:53.553Z,92159.45
2018-03-30T01:26:42.662Z,92155.09
2018-03-30T01:27:31.719Z,92155.24
2018-03-30T01:28:23.734Z,92154.25
2018-03-30T01:29:12.782Z,92153.50
2018-03-30T01:30:01.858Z,92160.68
2018-03-30T01:30:51.028Z,92154.33
2018-03-30T01:31:40.151Z,92149.48
2018-03-30T01:32:29.241Z,92146.50
2018-03-30T01:33:18.285Z,92147.64
2018-03-30T01:34:07.331Z,92153.49
2018-03-30T01:34:56.398Z,92149.29
2018-03-30T01:35:45.501Z,92155.25
2018-03-30T01:36:34.548Z,92156.81
2018-03-30T01:37:23.588Z,92156.23
2018-03-30T01:38:15.760Z,92161.09
2018-03-30T01:39:04.853Z,92163.36
2018-03-30T01:39:53.938Z,92167.86
2018-03-30T01:40:42.989Z,92163.52
2018-03-30T01:41:32.048Z,92160.27
2018-03-30T01:42:21.096Z,92164.00
2018-03-30T01:43:10.149Z,92160.89
2018-03-30T01:43:59.249Z,92168.22
2018-03-30T01:44:48.297Z,92158.31
2018-03-30T01:45:37.351Z,92166.72
2018-03-30T01:46:26.438Z,92168.73
2018-03-30T01:47:15.511Z,92163.59
2018-03-30T01:48:04.560Z,92162.97
2018-03-30T01:48:53.601Z,92160.05
2018-03-30T01:49:42.649Z,92165.08
2018-03-30T01:50:31.695Z,92161.07
2018-03-30T01:51:20.743Z,92162.77
2018-03-30T01:52:09.874Z,92161.11
2018-03-30T01:52:58.934Z,92160.78
2018-03-30T01:53:47.982Z,92164.42
2018-03-30T01:54:37.031Z,92159.48
2018-03-30T01:55:26.080Z,92168.12
2018-03-30T01:56:15.130Z,92165.72
2018-03-30T01:57:04.232Z,92160.86
2018-03-30T01:57:53.378Z,92167.45
2018-03-30T01:58:42.428Z,92170.63
2018-03-30T01:59:31.473Z,92168.55
2018-03-30T02:00:20.536Z,92171.94
2018-03-30T02:01:09.583Z,92167.59
2018-03-30T02:01:58.628Z,92177.48
2018-03-30T02:02:47.673Z,92176.92
2018-03-30T02:03:36.811Z,92178.58
2018-03-30T02:04:25.881Z,92176.79
2018-03-30T02:05:14.925Z,92176.80
2018-03-30T02:06:04.001Z,92177.73
2018-03-30T02:06:53.088Z,92179.56
2018-03-30T02:07:42.139Z,92181.47
2018-03-30T02:08:31.194Z,92184.72
2018-03-30T02:09:20.293Z,92184.94
2018-03-30T02:10:09.346Z,92180.35
2018-03-30T02:10:58.396Z,92183.36
2018-03-30T02:11:47.448Z,92181.97
2018-03-30T02:12:36.526Z,92191.31
2018-03-30T02:13:25.569Z,92187.80
2018-03-30T02:14:14.617Z,92189.09
2018-03-30T02:15:03.788Z,92182.36
2018-03-30T02:15:52.833Z,92182.72
2018-03-30T02:16:41.881Z,92182.89
2018-03-30T02:17:30.926Z,92188.37
2018-03-30T02:18:19.977Z,92185.91
2018-03-30T02:19:09.036Z,92190.31
2018-03-30T02:19:58.084Z,92189.16
2018-03-30T02:20:47.746Z,92184.65
2018-03-30T02:21:36.789Z,92190.59
2018-03-30T02:22:25.840Z,92192.92
2018-03-30T02:23:14.886Z,92188.84
2018-03-30T02:24:03.948Z,92194.68
2018-03-30T02:24:53.012Z,92192.20
2018-03-30T02:25:42.076Z,92191.92
2018-03-30T02:26:31.159Z,92189.88
2018-03-30T02:27:20.357Z,92193.53
2018-03-30T02:28:09.409Z,92190.66
2018-03-30T02:28:58.453Z,92186.70
2018-03-30T02:29:47.497Z,92186.47
2018-03-30T02:30:36.554Z,92183.43
2018-03-30T02:31:25.610Z,92183.64
2018-03-30T02:32:14.687Z,92188.70
2018-03-30T02:33:03.760Z,92183.73
2018-03-30T02:33:52.818Z,92188.41
2018-03-30T02:34:41.866Z,92183.25
2018-03-30T02:35:30.910Z,92194.98
2018-03-30T02:36:20.139Z,92191.36
2018-03-30T02:37:09.189Z,92189.27
2018-03-30T02:37:58.245Z,92189.63
2018-03-30T02:38:47.292Z,92187.79
2018-03-30T02:39:36.340Z,92189.27
2018-03-30T02:40:25.455Z,92192.39
2018-03-30T02:41:14.506Z,92195.11
2018-03-30T02:42:03.558Z,92195.30
2018-03-30T02:42:52.664Z,92194.78
2018-03-30T02:43:41.714Z,92192.09
2018-03-30T02:44:30.793Z,92194.38
2018-03-30T02:45:19.857Z,92186.17
2018-03-30T02:46:09.255Z,92194.88
2018-03-30T02:46:58.317Z,92194.17
2018-03-30T02:47:47.380Z,92196.63
2018-03-30T02:48:36.615Z,92194.50
2018-03-30T02:49:25.670Z,92196.98
2018-03-30T02:50:14.734Z,92190.58
2018-03-30T02:51:03.794Z,92190.83
2018-03-30T02:51:52.846Z,92186.53
2018-03-30T02:52:41.907Z,92194.48
2018-03-30T02:53:30.955Z,92196.05
2018-03-30T02:54:20.361Z,92201.22
2018-03-30T02:55:09.413Z,92203.76
2018-03-30T02:55:58.503Z,92197.06
2018-03-30T02:56:47.584Z,92200.22
2018-03-30T02:57:36.729Z,92200.53
2018-03-30T02:58:25.718Z,92199.96
2018-03-30T02:59:14.758Z,92199.82
2018-03-30T03:00:03.858Z,92202.88
2018-03-30T03:00:52.913Z,92199.61
2018-03-30T03:01:42.019Z,92191.91
2018-03-30T03:02:31.077Z,92197.31
2018-03-30T03:03:20.124Z,92198.06
2018-03-30T03:04:09.168Z,92199.88
2018-03-30T03:04:58.318Z,92202.58
2018-03-30T03:05:47.360Z,92204.26
2018-03-30T03:06:36.411Z,92211.61
2018-03-30T03:07:25.478Z,92209.97
2018-03-30T03:08:14.536Z,92205.60
2018-03-30T03:09:03.643Z,92195.18
2018-03-30T03:09:52.717Z,92197.94
2018-03-30T03:10:44.847Z,92199.23
2018-03-30T03:11:33.920Z,92197.84
2018-03-30T03:12:22.964Z,92201.45
2018-03-30T03:13:12.007Z,92203.78
2018-03-30T03:14:01.044Z,92205.39
2018-03-30T03:14:50.093Z,92206.89
2018-03-30T03:15:39.145Z,92210.23
2018-03-30T03:16:28.261Z,92211.84
2018-03-30T03:17:17.335Z,92210.27
2018-03-30T03:18:06.385Z,92212.05
2018-03-30T03:18:55.435Z,92209.46
2018-03-30T03:19:44.492Z,92209.48
2018-03-30T03:20:33.555Z,92209.00
2018-03-30T03:21:22.704Z,92208.86
2018-03-30T03:22:11.748Z,92211.05
2018-03-30T03:23:00.791Z,92214.16
2018-03-30T03:23:49.845Z,92215.03
2018-03-30T03:24:38.896Z,92215.74
2018-03-30T03:25:27.946Z,92217.63
2018-03-30T03:26:16.995Z,92212.59
2018-03-30T03:27:06.081Z,92218.52
2018-03-30T03:27:55.135Z,92217.70
2018-03-30T03:28:44.187Z,92217.36
2018-03-30T03:29:33.236Z,92219.38
2018-03-30T03:30:22.426Z,92218.28
2018-03-30T03:31:11.471Z,92225.07
2018-03-30T03:32:00.516Z,92224.31
2018-03-30T03:32:49.602Z,92231.96
2018-03-30T03:33:38.653Z,92230.23
2018-03-30T03:34:27.706Z,92229.56
2018-03-30T03:35:16.758Z,92237.09
2018-03-30T03:36:05.821Z,92230.38
2018-03-30T03:36:54.866Z,92229.79
2018-03-30T03:37:43.913Z,92235.28
2018-03-30T03:38:33.063Z,92233.13
2018-03-30T03:39:22.108Z,92242.39
2018-03-30T03:40:11.161Z,92236.85
2018-03-30T03:41:00.214Z,92237.98
2018-03-30T03:41:49.266Z,92241.66
2018-03-30T03:42:40.700Z,92242.35
2018-03-30T03:43:29.752Z,92239.89
2018-03-30T03:44:18.938Z,92239.06
2018-03-30T03:45:07.982Z,92248.17
2018-03-30T03:45:57.030Z,92242.05
2018-03-30T03:46:46.101Z,92246.30
2018-03-30T03:47:35.163Z,92250.05
2018-03-30T03:48:24.207Z,92245.36
2018-03-30T03:49:13.253Z,92247.84
2018-03-30T03:50:02.382Z,92246.45
2018-03-30T03:50:51.449Z,92248.42
2018-03-30T03:51:40.506Z,92245.49
2018-03-30T03:52:29.552Z,92250.05
2018-03-30T03:53:18.616Z,92254.98
2018-03-30T03:54:07.974Z,92252.39
2018-03-30T03:54:57.029Z,92253.58
2018-03-30T03:55:46.095Z,92254.16
2018-03-30T03:56:35.181Z,92252.98
2018-03-30T03:57:24.222Z,92255.02
2018-03-30T03:58:13.273Z,92255.91
2018-03-30T03:59:02.330Z,92255.09
2018-03-30T03:59:51.432Z,92254.59
2018-03-30T04:00:40.483Z,92253.60
2018-03-30T04:01:29.524Z,92257.72
2018-03-30T04:02:18.570Z,92261.19
2018-03-30T04:03:07.627Z,92259.34
2018-03-30T04:03:56.681Z,92256.56
2018-03-30T04:04:45.735Z,92262.38
2018-03-30T04:05:34.947Z,92262.83
2018-03-30T04:06:24.003Z,92260.34
2018-03-30T04:07:13.095Z,92264.31
2018-03-30T04:08:02.157Z,92262.79
2018-03-30T04:08:51.234Z,92264.08
2018-03-30T04:09:40.288Z,92264.27
2018-03-30T04:10:29.345Z,92264.80
2018-03-30T04:11:18.405Z,92270.45
2018-03-30T04:12:07.463Z,92269.97
2018-03-30T04:12:56.792Z,92268.20
2018-03-30T04:13:45.854Z,92268.55
2018-03-30T04:14:34.932Z,92273.95
2018-03-30T04:15:23.984Z,92269.03
2018-03-30T04:16:13.046Z,92265.77
2018-03-30T04:17:02.093Z,92271.34
2018-03-30T04:17:51.148Z,92274.52
2018-03-30T04:18:40.240Z,92269.98
2018-03-30T04:19:29.298Z,92276.02
2018-03-30T04:20:18.349Z,92267.74
2018-03-30T04:21:07.404Z,92271.13
2018-03-30T04:21:56.461Z,92267.19
2018-03-30T04:22:45.505Z,92270.73
2018-03-30T04:23:34.565Z,92269.86
2018-03-30T04:24:23.810Z,92266.81
2018-03-30T04:25:12.874Z,92270.84
2018-03-30T04:26:01.925Z,92270.83
2018-03-30T04:26:50.981Z,92276.19
2018-03-30T04:27:40.054Z,92278.28
2018-03-30T04:28:29.110Z,92277.98
2018-03-30T04:29:18.176Z,92274.28
2018-03-30T04:30:07.400Z,92283.54
2018-03-30T04:30:56.475Z,92281.64
2018-03-30T04:31:45.545Z,92283.91
2018-03-30T04:32:34.652Z,92288.78
2018-03-30T04:33:23.729Z,92281.52
2018-03-30T04:34:12.784Z,92286.06
2018-03-30T04:35:01.890Z,92282.06
2018-03-30T04:35:50.944Z,92276.20
2018-03-30T04:36:40.018Z,92281.73
2018-03-30T04:37:29.076Z,92283.81
2018-03-30T04:38:18.127Z,92282.83
2018-03-30T04:39:07.194Z,92289.30
2018-03-30T04:39:56.257Z,92292.28
2018-03-30T04:40:45.419Z,92294.24
2018-03-30T04:41:34.471Z,92291.80
2018-03-30T04:42:23.545Z,92286.20
2018-03-30T04:43:12.606Z,92290.13
2018-03-30T04:44:01.782Z,92292.46
2018-03-30T04:44:51.101Z,92287.54
2018-03-30T04:45:40.147Z,92299.38
2018-03-30T04:46:29.248Z,92297.02
2018-03-30T04:47:18.292Z,92288.93
2018-03-30T04:48:07.341Z,92294.87
2018-03-30T04:48:56.390Z,92294.12
2018-03-30T04:49:45.431Z,92293.34
2018-03-30T04:50:34.504Z,92292.94
2018-03-30T04:51:24.453Z,92288.63
2018-03-30T04:52:13.493Z,92292.47
2018-03-30T04:53:02.543Z,92293.59
2018-03-30T04:53:51.593Z,92294.50
2018-03-30T04:54:40.639Z,92289.14
2018-03-30T04:55:29.688Z,92294.86
2018-03-30T04:56:18.762Z,92302.67
2018-03-30T04:57:07.913Z,92296.06
2018-03-30T04:57:56.963Z,92295.03
2018-03-30T04:58:46.086Z,92301.19
2018-03-30T04:59:35.137Z,92293.56
2018-03-30T05:00:24.184Z,92295.12
2018-03-30T05:01:13.246Z,92286.92
2018-03-30T05:02:02.298Z,92286.64
2018-03-30T05:02:51.377Z,92289.23
2018-03-30T05:03:40.460Z,92288.13
2018-03-30T05:04:29.567Z,92290.42
2018-03-30T05:05:18.613Z,92290.48
2018-03-30T05:06:07.655Z,92292.03
2018-03-30T05:06:56.696Z,92288.56
2018-03-30T05:07:45.750Z,92297.75
2018-03-30T05:08:34.800Z,92296.84
2018-03-30T05:09:23.959Z,92293.33
2018-03-30T05:10:13.061Z,92291.44
2018-03-30T05:11:02.168Z,92295.23
2018-03-30T05:11:51.218Z,92296.05
2018-03-30T05:12:40.301Z,92297.69
2018-03-30T05:13:29.348Z,92299.54
2018-03-30T05:14:18.401Z,92299.28
2018-03-30T05:15:07.553Z,92298.77
2018-03-30T05:15:56.626Z,92302.97
2018-03-30T05:16:45.679Z,92299.08
2018-03-30T05:17:34.733Z,92300.41
2018-03-30T05:18:23.784Z,92305.27
2018-03-30T05:19:12.833Z,92308.64
2018-03-30T05:20:01.891Z,92308.91
2018-03-30T05:20:51.093Z,92313.33
2018-03-30T05:21:40.140Z,92310.04
2018-03-30T05:22:29.194Z,92312.78
2018-03-30T05:23:18.261Z,92316.94
2018-03-30T05:24:07.308Z,92308.13
2018-03-30T05:24:56.387Z,92313.50
2018-03-30T05:25:45.425Z,92315.14
2018-03-30T05:26:34.523Z,92315.91
2018-03-30T05:27:23.561Z,92321.31
2018-03-30T05:28:12.604Z,92324.84
2018-03-30T05:29:01.658Z,92314.91
2018-03-30T05:29:50.701Z,92316.19
2018-03-30T05:30:39.873Z,92320.28
2018-03-30T05:31:28.934Z,92315.72
2018-03-30T05:32:18.037Z,92319.71
2018-03-30T05:33:07.086Z,92313.78
2018-03-30T05:33:56.154Z,92322.17
2018-03-30T05:34:45.209Z,92318.95
2018-03-30T05:35:34.266Z,92317.45
2018-03-30T05:36:23.581Z,92321.34
2018-03-30T05:37:12.640Z,92321.84
2018-03-30T05:38:01.688Z,92321.39
2018-03-30T05:38:50.733Z,92320.44
2018-03-30T05:39:39.789Z,92321.95
2018-03-30T05:40:28.841Z,92324.63
2018-03-30T05:41:17.892Z,92320.37
2018-03-30T05:42:06.980Z,92320.70
2018-03-30T05:42:56.045Z,92317.66
2018-03-30T05:43:45.097Z,92314.41
2018-03-30T05:44:34.153Z,92315.88
2018-03-30T05:45:23.196Z,92316.13
2018-03-30T05:46:12.245Z,92318.43
2018-03-30T05:47:01.299Z,92315.32
2018-03-30T05:47:53.426Z,92320.48
2018-03-30T05:48:42.495Z,92316.39
2018-03-30T05:49:31.541Z,92319.00
2018-03-30T05:50:20.582Z,92317.30
2018-03-30T05:51:09.635Z,92316.33
2018-03-30T05:51:58.681Z,92317.49
2018-03-30T05:52:47.729Z,92318.41
2018-03-30T05:53:36.835Z,92317.46
2018-03-30T05:54:25.876Z,92318.24
2018-03-30T05:55:15.016Z,92315.41
2018-03-30T05:56:04.096Z,92320.05
2018-03-30T05:56:53.246Z,92315.69
2018-03-30T05:57:42.302Z,92309.63
2018-03-30T05:58:31.358Z,92313.55
2018-03-30T05:59:20.402Z,92307.14
2018-03-30T06:00:09.453Z,92310.91
2018-03-30T06:00:58.544Z,92307.98
2018-03-30T06:01:47.591Z,92310.34
2018-03-30T06:02:36.641Z,92305.33
2018-03-30T06:03:25.682Z,92302.72
2018-03-30T06:04:14.734Z,92304.34
2018-03-30T06:05:03.794Z,92304.74
2018-03-30T06:05:52.844Z,92305.25
2018-03-30T06:06:41.932Z,92301.28
2018-03-30T06:07:30.981Z,92311.27
2018-03-30T06:08:20.051Z,92310.86
2018-03-30T06:09:09.116Z,92313.28
2018-03-30T06:09:58.164Z,92311.23
2018-03-30T06:10:47.220Z,92310.55
2018-03-30T06:11:36.265Z,92305.03
2018-03-30T06:12:25.410Z,92301.06
2018-03-30T06:13:14.459Z,92305.00
2018-03-30T06:14:03.501Z,92305.80
2018-03-30T06:14:52.583Z,92307.05
2018-03-30T06:15:41.623Z,92310.52
2018-03-30T06:16:30.662Z,92307.69
2018-03-30T06:17:19.953Z,92308.47
2018-03-30T06:18:12.062Z,92309.55
2018-03-30T06:19:01.171Z,92310.91
2018-03-30T06:19:50.202Z,92312.88
2018-03-30T06:20:39.249Z,92301.17
2018-03-30T06:21:28.304Z,92306.44
2018-03-30T06:22:17.354Z,92304.45
2018-03-30T06:23:06.401Z,92309.61
2018-03-30T06:23:55.503Z,92307.15
2018-03-30T06:24:44.541Z,92311.44
2018-03-30T06:25:33.594Z,92305.12
2018-03-30T06:26:22.688Z,92308.05
2018-03-30T06:27:11.770Z,92303.80
2018-03-30T06:28:00.817Z,92302.00
2018-03-30T06:28:49.870Z,92307.00
2018-03-30T06:29:38.928Z,92312.34
2018-03-30T06:30:27.969Z,92311.30
2018-03-30T06:31:17.011Z,92311.52
2018-03-30T06:32:06.186Z,92315.46
2018-03-30T06:32:55.232Z,92310.30
2018-03-30T06:33:44.277Z,92316.55
2018-03-30T06:34:33.345Z,92308.89
2018-03-30T06:35:22.406Z,92312.93
2018-03-30T06:36:11.463Z,92311.95
2018-03-30T06:37:00.636Z,92317.14
2018-03-30T06:37:49.687Z,92313.57
2018-03-30T06:38:38.782Z,92315.35
2018-03-30T06:39:27.824Z,92312.20
2018-03-30T06:40:16.865Z,92315.06
2018-03-30T06:41:05.915Z,92315.42
2018-03-30T06:41:54.964Z,92316.58
2018-03-30T06:42:44.016Z,92317.73
2018-03-30T06:43:33.186Z,92318.27
2018-03-30T06:44:22.238Z,92323.80
2018-03-30T06:45:11.276Z,92317.47
2018-03-30T06:46:00.325Z,92317.38
2018-03-30T06:46:49.369Z,92319.88
2018-03-30T06:47:38.420Z,92316.94
2018-03-30T06:48:27.480Z,92320.86
2018-03-30T06:49:16.564Z,92315.59
2018-03-30T06:50:05.609Z,92319.52
2018-03-30T06:50:54.662Z,92321.55
2018-03-30T06:51:43.721Z,92323.34
2018-03-30T06:52:32.789Z,92326.99
2018-03-30T06:53:21.835Z,92330.75
2018-03-30T06:54:10.890Z,92322.13
2018-03-30T06:55:00.039Z,92330.08
2018-03-30T06:55:49.084Z,92329.17
2018-03-30T06:56:38.214Z,92329.41
2018-03-30T06:57:27.263Z,92331.77
2018-03-30T06:58:16.338Z,92331.81
2018-03-30T06:59:05.414Z,92327.89
2018-03-30T06:59:54.507Z,92328.38
2018-03-30T07:00:43.533Z,92329.34
2018-03-30T07:01:32.582Z,92330.03
2018-03-30T07:02:21.629Z,92333.12
2018-03-30T07:03:10.741Z,92327.28
2018-03-30T07:03:59.800Z,92329.78
2018-03-30T07:04:48.843Z,92329.16
2018-03-30T07:05:37.892Z,92329.82
2018-03-30T07:06:26.941Z,92329.14
2018-03-30T07:07:15.984Z,92328.98
2018-03-30T07:08:05.064Z,92332.35
2018-03-30T07:08:54.176Z,92335.02
2018-03-30T07:09:43.251Z,92332.58
2018-03-30T07:10:32.293Z,92333.98
2018-03-30T07:11:21.342Z,92333.53
2018-03-30T07:12:10.388Z,92334.31
2018-03-30T07:12:59.433Z,92335.57
2018-03-30T07:13:48.492Z,92339.77
2018-03-30T07:14:37.711Z,92343.20
2018-03-30T07:15:26.761Z,92342.24
2018-03-30T07:16:15.805Z,92336.44
2018-03-30T07:17:04.845Z,92339.02
2018-03-30T07:17:53.952Z,92342.81
2018-03-30T07:18:43.001Z,92341.22
2018-03-30T07:19:32.052Z,92341.15
2018-03-30T07:20:21.099Z,92341.59
2018-03-30T07:21:10.197Z,92341.87
2018-03-30T07:21:59.237Z,92341.70
2018-03-30T07:22:48.285Z,92340.45
2018-03-30T07:23:37.327Z,92334.11
2018-03-30T07:24:26.382Z,92335.31
2018-03-30T07:25:15.521Z,92335.05
2018-03-30T07:26:04.594Z,92337.05
2018-03-30T07:26:53.654Z,92335.04
2018-03-30T07:27:42.702Z,92335.67
2018-03-30T07:28:31.748Z,92334.20
2018-03-30T07:29:20.802Z,92335.22
2018-03-30T07:30:09.957Z,92342.03
2018-03-30T07:30:59.006Z,92347.70
2018-03-30T07:31:48.052Z,92342.45
2018-03-30T07:32:37.101Z,92343.39
2018-03-30T07:33:26.155Z,92340.11
2018-03-30T07:34:15.270Z,92337.56
2018-03-30T07:35:04.317Z,92342.02
2018-03-30T07:35:53.359Z,92343.89
2018-03-30T07:36:42.413Z,92343.72
2018-03-30T07:37:31.456Z,92335.17
2018-03-30T07:38:20.498Z,92341.37
2018-03-30T07:39:09.544Z,92337.39
2018-03-30T07:39:58.692Z,92342.22
2018-03-30T07:40:47.737Z,92342.91
2018-03-30T07:41:36.789Z,92342.16
2018-03-30T07:42:25.896Z,92337.44
2018-03-30T07:43:15.013Z,92336.13
2018-03-30T07:44:04.127Z,92336.98
2018-03-30T07:44:53.236Z,92341.77
2018-03-30T07:45:42.459Z,92344.00
2018-03-30T07:46:31.581Z,92336.81
2018-03-30T07:47:20.771Z,92337.47
2018-03-30T07:48:09.888Z,92339.38
2018-03-30T07:48:59.014Z,92333.41
2018-03-30T07:49:48.149Z,92336.39
2018-03-30T07:50:37.257Z,92334.02
2018-03-30T07:51:26.514Z,92334.38
2018-03-30T07:52:15.989Z,92335.33
2018-03-30T07:53:06.365Z,92332.99
2018-03-30T07:53:58.629Z,92331.38
2018-03-30T07:54:48.728Z,92329.34
2018-03-30T07:55:37.992Z,92333.98
2018-03-30T07:56:27.110Z,92337.25
2018-03-30T07:57:16.212Z,92331.95
2018-03-30T07:58:05.335Z,92335.47
2018-03-30T07:58:54.643Z,92332.99
2018-03-30T07:59:43.760Z,92332.60
2018-03-30T08:00:32.875Z,92334.88
2018-03-30T08:01:21.992Z,92332.58
2018-03-30T08:02:11.104Z,92331.52
2018-03-30T08:03:00.226Z,92336.56
2018-03-30T08:03:49.510Z,92336.25
2018-03-30T08:04:38.717Z,92333.36
2018-03-30T08:05:27.893Z,92332.98
2018-03-30T08:06:16.976Z,92327.86
2018-03-30T08:07:06.174Z,92328.22
2018-03-30T08:07:55.270Z,92322.00
2018-03-30T08:08:44.364Z,92330.91
2018-03-30T08:09:33.708Z,92327.03
2018-03-30T08:10:22.881Z,92324.03
2018-03-30T08:11:11.941Z,92318.13
2018-03-30T08:12:01.039Z,92315.94
2018-03-30T08:12:50.119Z,92320.15
2018-03-30T08:13:39.246Z,92320.47
2018-03-30T08:14:28.310Z,92319.45
2018-03-30T08:15:17.377Z,92323.00
2018-03-30T08:16:06.450Z,92324.48
2018-03-30T08:16:55.548Z,92325.14
2018-03-30T08:17:44.838Z,92324.88
2018-03-30T08:18:33.900Z,92325.23
2018-03-30T08:19:23.014Z,92320.05
2018-03-30T08:20:12.073Z,92325.25
2018-03-30T08:21:01.158Z,92320.40
2018-03-30T08:21:50.219Z,92322.16
2018-03-30T08:22:39.439Z,92319.58
2018-03-30T08:23:28.502Z,92319.75
2018-03-30T08:24:17.564Z,92324.41
2018-03-30T08:25:06.655Z,92320.77
2018-03-30T08:25:55.803Z,92321.41
2018-03-30T08:26:44.879Z,92323.11
2018-03-30T08:27:33.945Z,92323.61
2018-03-30T08:28:23.002Z,92318.92
2018-03-30T08:29:12.063Z,92322.62
2018-03-30T08:30:01.191Z,92313.53
2018-03-30T08:30:50.265Z,92315.05
2018-03-30T08:31:39.327Z,92313.12
2018-03-30T08:32:28.414Z,92312.63
2018-03-30T08:33:17.474Z,92316.89
2018-03-30T08:34:06.534Z,92315.33
2018-03-30T08:34:55.699Z,92316.66
2018-03-30T08:35:44.764Z,92318.95
2018-03-30T08:36:33.826Z,92323.94
2018-03-30T08:37:22.889Z,92325.55
2018-03-30T08:38:11.966Z,92324.34
2018-03-30T08:39:01.022Z,92317.30
2018-03-30T08:39:50.081Z,92322.25
2018-03-30T08:40:39.241Z,92316.89
2018-03-30T08:41:28.297Z,92315.92
2018-03-30T08:42:17.407Z,92320.93
2018-03-30T08:43:06.463Z,92317.09
2018-03-30T08:43:55.520Z,92317.41
2018-03-30T08:44:44.571Z,92317.53
2018-03-30T08:45:33.629Z,92318.09
2018-03-30T08:46:22.742Z,92315.55
2018-03-30T08:47:11.805Z,92320.88
2018-03-30T08:48:00.860Z,92316.77
2018-03-30T08:48:50.008Z,92323.34
2018-03-30T08:49:39.101Z,92316.88
2018-03-30T08:50:28.149Z,92318.52
2018-03-30T08:51:17.227Z,92316.16
2018-03-30T08:52:06.377Z,92314.97
2018-03-30T08:52:55.428Z,92314.97
2018-03-30T08:53:44.502Z,92314.91
2018-03-30T08:54:33.554Z,92305.75
2018-03-30T08:55:22.628Z,92314.62
2018-03-30T08:56:11.734Z,92311.28
2018-03-30T08:57:00.773Z,92310.86
2018-03-30T08:57:50.109Z,92304.74
2018-03-30T08:58:39.177Z,92310.58
2018-03-30T08:59:28.237Z,92304.08
2018-03-30T09:00:17.302Z,92306.31
2018-03-30T09:01:06.353Z,92299.90
2018-03-30T09:01:55.414Z,92305.93
2018-03-30T09:02:44.497Z,92301.69
2018-03-30T09:03:33.549Z,92298.37
2018-03-30T09:04:22.624Z,92299.14
2018-03-30T09:05:11.678Z,92298.00
2018-03-30T09:06:00.731Z,92299.35
2018-03-30T09:06:49.790Z,92292.30
2018-03-30T09:07:38.848Z,92294.77
2018-03-30T09:08:28.009Z,92286.19
2018-03-30T09:09:17.085Z,92294.55
2018-03-30T09:10:06.256Z,92287.61
2018-03-30T09:10:55.309Z,92286.23
2018-03-30T09:11:44.366Z,92281.78
2018-03-30T09:12:33.425Z,92283.11
2018-03-30T09:13:22.516Z,92280.76
2018-03-30T09:14:11.741Z,92273.94
2018-03-30T09:15:00.807Z,92276.27
2018-03-30T09:15:49.861Z,92274.73
2018-03-30T09:16:38.937Z,92271.65
2018-03-30T09:17:27.994Z,92274.88
2018-03-30T09:18:17.088Z,92264.97
2018-03-30T09:19:06.161Z,92269.59
2018-03-30T09:19:55.213Z,92266.17
2018-03-30T09:20:44.274Z,92271.13
2018-03-30T09:21:33.337Z,92264.41
2018-03-30T09:22:22.402Z,92266.09
2018-03-30T09:23:11.460Z,92264.41
2018-03-30T09:24:00.618Z,92266.13
2018-03-30T09:24:49.675Z,92268.78
2018-03-30T09:25:38.737Z,92263.60
2018-03-30T09:26:27.856Z,92266.17
2018-03-30T09:27:16.934Z,92264.42
2018-03-30T09:28:05.997Z,92259.34
2018-03-30T09:28:55.061Z,92263.05
2018-03-30T09:29:49.624Z,92260.95
2018-03-30T09:30:38.698Z,92261.98
2018-03-30T09:31:27.771Z,92263.23
2018-03-30T09:32:16.819Z,92262.08
2018-03-30T09:33:05.894Z,92258.17
2018-03-30T09:33:54.958Z,92262.31
2018-03-30T09:34:44.073Z,92265.47
2018-03-30T09:35:33.130Z,92256.32
2018-03-30T09:36:22.198Z,92251.09
2018-03-30T09:37:11.257Z,92250.66
2018-03-30T09:38:00.306Z,92248.84